Time;durP1;ratioP1;P1;durP2;ratioP2;P2;SDS_P1;SDS_P2;PMS_P1;PMS_P2;Temp;Humidity;BMP_temperature;BMP_pressure;BME280_temperature;BME280_humidity;BME280_pressure;Samples;Min_cycle;Max_cycle;Signal;HPM_P1;HPM_P2
2021/10/16 00:02:05;;;;;;;4.45;4.05;;;;;;;5.93;100.00;96200.75;5112405;28;24498;-76
2021/10/16 00:04:32;;;;;;;4.70;4.15;;;;;;;5.88;100.00;96192.31;5112208;28;24417;-76
2021/10/16 00:06:58;;;;;;;7.25;4.22;;;;;;;5.88;100.00;96192.31;5112425;28;24437;-76
2021/10/16 00:09:24;;;;;;;5.90;4.00;;;;;;;5.86;100.00;96191.56;5112160;28;24986;-76
2021/10/16 00:11:51;;;;;;;5.35;4.15;;;;;;;5.84;100.00;96183.06;5112133;28;24425;-76
2021/10/16 00:14:17;;;;;;;4.75;4.25;;;;;;;5.82;100.00;96193.41;5112623;28;24495;-76
2021/10/16 00:16:45;;;;;;;5.55;4.47;;;;;;;5.80;100.00;96191.78;5111480;28;24486;-76
2021/10/16 00:19:12;;;;;;;9.07;3.78;;;;;;;5.83;100.00;96189.09;5112056;28;24973;-76
2021/10/16 00:21:38;;;;;;;5.90;4.28;;;;;;;5.87;100.00;96185.50;5112165;28;24455;-76
2021/10/16 00:24:06;;;;;;;4.75;4.07;;;;;;;5.88;100.00;96183.78;5112047;28;24791;-76
2021/10/16 00:26:33;;;;;;;7.50;4.30;;;;;;;5.88;100.00;96186.34;5111765;28;24761;-76
2021/10/16 00:28:59;;;;;;;4.80;3.58;;;;;;;5.85;100.00;96186.47;5111731;28;24506;-76
2021/10/16 00:31:26;;;;;;;11.48;4.03;;;;;;;5.56;100.00;96191.78;5111875;28;24805;-76
2021/10/16 00:33:53;;;;;;;5.03;4.18;;;;;;;5.66;100.00;96183.72;5111689;28;24954;-76
2021/10/16 00:36:20;;;;;;;4.45;4.03;;;;;;;5.70;100.00;96178.41;5111560;28;24482;-76
2021/10/16 00:38:46;;;;;;;4.43;3.50;;;;;;;5.73;100.00;96182.63;5111702;28;24422;-76
2021/10/16 00:41:13;;;;;;;4.43;3.75;;;;;;;5.70;100.00;96181.00;5110943;28;24939;-76
2021/10/16 00:43:40;;;;;;;4.60;3.78;;;;;;;5.53;100.00;96186.75;5111519;28;24520;-76
2021/10/16 00:46:06;;;;;;;5.15;4.15;;;;;;;5.28;100.00;96180.81;5111364;27;24429;-76
2021/10/16 00:48:33;;;;;;;4.32;3.85;;;;;;;5.33;100.00;96184.88;5111451;28;24414;-76
2021/10/16 00:51:01;;;;;;;4.43;3.38;;;;;;;5.42;100.00;96181.19;5111439;28;24438;-76
2021/10/16 00:53:27;;;;;;;4.20;3.75;;;;;;;5.47;100.00;96184.41;5111299;28;24947;-76
2021/10/16 00:55:54;;;;;;;4.32;3.78;;;;;;;5.53;100.00;96189.34;5111057;28;24771;-76
2021/10/16 00:58:21;;;;;;;4.30;3.60;;;;;;;5.51;100.00;96187.69;5111276;28;24966;-76
2021/10/16 01:00:47;;;;;;;5.53;3.80;;;;;;;5.58;100.00;96178.88;5111649;28;24413;-76
2021/10/16 01:03:14;;;;;;;5.90;4.13;;;;;;;5.53;100.00;96181.63;5111393;28;24818;-76
2021/10/16 01:05:40;;;;;;;6.05;4.05;;;;;;;5.54;100.00;96175.59;5110918;28;24973;-76
2021/10/16 01:08:11;;;;;;;4.38;3.20;;;;;;;5.59;100.00;96176.25;5112395;28;24451;-77
2021/10/16 01:10:38;;;;;;;4.47;3.78;;;;;;;5.55;100.00;96176.41;5112790;27;24483;-77
2021/10/16 01:13:04;;;;;;;4.18;3.60;;;;;;;5.42;100.00;96177.78;5112511;28;24425;-76
2021/10/16 01:15:31;;;;;;;4.47;3.50;;;;;;;5.41;100.00;96173.50;5112437;28;24474;-77
2021/10/16 01:17:58;;;;;;;5.22;3.90;;;;;;;5.45;100.00;96172.50;5112377;28;24417;-76
2021/10/16 01:20:25;;;;;;;4.10;3.58;;;;;;;5.46;100.00;96187.88;5112631;28;24416;-77
2021/10/16 01:22:54;;;;;;;5.07;3.90;;;;;;;5.43;100.00;96180.28;5112409;28;24420;-77
2021/10/16 01:25:22;;;;;;;5.20;3.45;;;;;;;5.43;100.00;96174.31;5112180;28;24467;-76
2021/10/16 01:27:49;;;;;;;5.15;3.78;;;;;;;5.44;100.00;96174.22;5112084;28;25032;-76
2021/10/16 01:30:18;;;;;;;7.13;3.50;;;;;;;5.44;100.00;96173.41;5112560;28;24445;-77
2021/10/16 01:32:45;;;;;;;6.03;3.67;;;;;;;5.15;100.00;96162.41;5112298;28;24440;-77
2021/10/16 01:35:13;;;;;;;4.00;3.33;;;;;;;4.87;100.00;96166.84;5112127;28;24421;-77
2021/10/16 01:37:41;;;;;;;4.50;3.40;;;;;;;4.93;100.00;96162.34;5112426;28;24496;-77
2021/10/16 01:40:11;;;;;;;4.18;3.28;;;;;;;5.10;100.00;96157.47;5112400;28;24775;-77
2021/10/16 01:42:42;;;;;;;4.78;3.83;;;;;;;4.88;100.00;96160.81;5112593;28;24434;-76
2021/10/16 01:45:10;;;;;;;3.92;3.53;;;;;;;4.89;100.00;96163.31;5111728;28;24463;-78
2021/10/16 01:47:45;;;;;;;4.23;3.63;;;;;;;5.04;100.00;96159.41;5112224;28;24463;-77
2021/10/16 01:50:12;;;;;;;10.52;4.15;;;;;;;5.12;100.00;96156.56;5112261;28;24997;-77
2021/10/16 01:52:38;;;;;;;5.22;3.92;;;;;;;5.25;100.00;96157.81;5116430;28;24958;-77
2021/10/16 01:55:05;;;;;;;4.47;3.50;;;;;;;5.35;100.00;96154.03;5116118;28;24417;-77
2021/10/16 01:57:33;;;;;;;4.47;3.92;;;;;;;5.38;100.00;96155.63;5116690;28;24433;-77
2021/10/16 01:59:59;;;;;;;4.97;3.85;;;;;;;5.45;100.00;96151.94;5116658;27;24973;-76
2021/10/16 02:02:26;;;;;;;5.00;3.70;;;;;;;5.55;100.00;96153.28;5116751;28;24453;-77
2021/10/16 02:04:52;;;;;;;5.27;4.43;;;;;;;5.58;100.00;96155.75;5116723;28;24422;-77
2021/10/16 02:07:19;;;;;;;4.80;4.27;;;;;;;5.45;100.00;96155.38;5116429;28;24434;-77
2021/10/16 02:09:45;;;;;;;5.35;4.30;;;;;;;5.42;100.00;96155.50;5116348;28;24845;-75
2021/10/16 02:12:12;;;;;;;6.22;4.03;;;;;;;5.44;100.00;96152.84;5116768;27;24421;-77
2021/10/16 02:14:39;;;;;;;7.03;4.30;;;;;;;5.57;100.00;96152.34;5116367;28;25001;-77
2021/10/16 02:17:06;;;;;;;4.25;3.85;;;;;;;5.60;100.00;96146.28;5116335;28;24426;-76
2021/10/16 02:19:32;;;;;;;6.60;3.80;;;;;;;5.66;100.00;96147.75;5116633;28;24479;-75
2021/10/16 02:21:58;;;;;;;4.40;3.70;;;;;;;5.62;100.00;96152.19;5116226;28;24421;-77
2021/10/16 02:24:25;;;;;;;4.90;3.90;;;;;;;5.52;100.00;96146.53;5116480;28;24911;-75
2021/10/16 02:26:51;;;;;;;4.43;3.50;;;;;;;5.63;100.00;96150.44;5122817;28;24504;-76
2021/10/16 02:29:18;;;;;;;6.00;4.03;;;;;;;5.41;100.00;96153.78;5118819;28;24429;-77
2021/10/16 02:31:46;;;;;;;6.20;4.53;;;;;;;5.22;100.00;96163.06;5120845;28;24981;-77
2021/10/16 02:34:12;;;;;;;6.43;4.10;;;;;;;5.30;100.00;96150.78;5122241;28;24418;-76
2021/10/16 02:36:38;;;;;;;4.30;3.65;;;;;;;5.45;100.00;96146.81;5117779;28;24426;-76
2021/10/16 02:39:05;;;;;;;4.37;3.83;;;;;;;5.48;100.00;96154.41;5116163;28;24433;-77
2021/10/16 02:41:31;;;;;;;4.45;3.35;;;;;;;5.66;100.00;96151.16;5115454;28;24429;-77
2021/10/16 02:43:58;;;;;;;6.32;4.03;;;;;;;5.93;100.00;96158.75;5115556;27;24422;-77
2021/10/16 02:46:24;;;;;;;4.53;4.13;;;;;;;5.91;100.00;96160.53;5115409;28;24425;-76
2021/10/16 02:48:52;;;;;;;3.87;3.40;;;;;;;5.86;100.00;96157.28;5115216;28;24511;-77
2021/10/16 02:51:18;;;;;;;13.43;4.30;;;;;;;5.74;100.00;96156.84;5115303;28;24456;-76
2021/10/16 02:53:45;;;;;;;5.93;3.72;;;;;;;5.59;100.00;96160.81;5115022;27;24425;-77
2021/10/16 02:56:11;;;;;;;4.85;3.70;;;;;;;5.70;100.00;96159.59;5115064;28;24436;-76
2021/10/16 02:58:37;;;;;;;4.15;3.75;;;;;;;5.76;100.00;96165.34;5115017;28;24463;-76
2021/10/16 03:01:04;;;;;;;4.30;3.90;;;;;;;5.75;100.00;96165.41;5114831;28;24511;-76
2021/10/16 03:03:30;;;;;;;5.80;4.28;;;;;;;5.76;100.00;96169.66;5113969;27;24486;-76
2021/10/16 03:05:58;;;;;;;4.40;3.77;;;;;;;5.71;100.00;96169.84;5115025;28;24508;-75
2021/10/16 03:08:25;;;;;;;4.15;3.45;;;;;;;5.71;100.00;96171.53;5119950;28;24417;-75
2021/10/16 03:10:51;;;;;;;5.78;3.95;;;;;;;5.80;100.00;96168.66;5117727;28;24491;-76
2021/10/16 03:13:18;;;;;;;5.03;3.67;;;;;;;6.10;100.00;96165.84;5115840;28;24422;-77
2021/10/16 03:15:44;;;;;;;6.97;3.92;;;;;;;6.33;100.00;96164.94;5115108;28;24479;-77
2021/10/16 03:18:11;;;;;;;5.38;4.30;;;;;;;6.27;100.00;96164.28;5115366;28;24475;-77
2021/10/16 03:20:37;;;;;;;5.18;3.85;;;;;;;6.06;100.00;96168.53;5115195;28;24413;-77
2021/10/16 03:23:07;;;;;;;7.57;4.28;;;;;;;6.30;100.00;96163.31;5114863;28;24429;-77
2021/10/16 03:25:33;;;;;;;6.30;4.40;;;;;;;6.18;100.00;96163.78;5114577;28;24417;-75
2021/10/16 03:28:00;;;;;;;4.60;4.13;;;;;;;5.80;100.00;96159.19;5114804;28;24429;-77
2021/10/16 03:30:26;;;;;;;5.68;4.30;;;;;;;5.49;100.00;96161.25;5114202;27;24498;-77
2021/10/16 03:32:52;;;;;;;4.97;4.45;;;;;;;5.43;100.00;96162.28;5114061;28;24433;-77
2021/10/16 03:35:19;;;;;;;5.78;4.68;;;;;;;5.56;100.00;96157.53;5114053;28;24443;-77
2021/10/16 03:37:45;;;;;;;6.55;4.75;;;;;;;5.62;100.00;96169.31;5114094;28;24417;-77
2021/10/16 03:40:13;;;;;;;5.75;4.88;;;;;;;5.66;100.00;96169.16;5113995;28;24479;-77
2021/10/16 03:42:40;;;;;;;5.30;4.70;;;;;;;5.60;100.00;96164.25;5114628;28;24420;-75
2021/10/16 03:45:07;;;;;;;6.85;5.05;;;;;;;5.74;100.00;96158.59;5113957;28;24430;-77
2021/10/16 03:47:33;;;;;;;4.87;3.83;;;;;;;6.10;100.00;96151.25;5114360;28;24486;-77
2021/10/16 03:50:00;;;;;;;5.15;4.32;;;;;;;6.10;100.00;96151.25;5114768;28;24781;-77
2021/10/16 03:52:26;;;;;;;5.90;4.40;;;;;;;6.07;100.00;96148.78;5113683;28;24463;-77
2021/10/16 03:54:52;;;;;;;6.73;4.80;;;;;;;6.16;100.00;96150.19;5113633;28;24422;-77
2021/10/16 03:57:20;;;;;;;5.80;5.05;;;;;;;6.30;100.00;96151.31;5114123;28;24421;-77
2021/10/16 03:59:47;;;;;;;5.65;4.90;;;;;;;6.16;100.00;96150.19;5113207;28;24420;-77
2021/10/16 04:02:13;;;;;;;7.45;4.88;;;;;;;6.09;100.00;96147.00;5113980;28;24425;-77
2021/10/16 04:04:40;;;;;;;6.80;4.72;;;;;;;6.15;100.00;96146.75;5113802;28;24421;-77
2021/10/16 04:07:06;;;;;;;5.50;4.97;;;;;;;6.16;100.00;96151.00;5114020;28;24766;-77
2021/10/16 04:09:33;;;;;;;5.70;5.20;;;;;;;5.88;100.00;96145.22;5113945;28;24429;-75
2021/10/16 04:11:59;;;;;;;5.72;4.90;;;;;;;5.83;100.00;96153.13;5114130;28;24445;-75
2021/10/16 04:14:27;;;;;;;6.00;5.07;;;;;;;5.93;100.00;96156.19;5113680;28;25023;-77
2021/10/16 04:16:53;;;;;;;5.03;4.55;;;;;;;6.01;100.00;96151.59;5113703;28;24567;-77
2021/10/16 04:19:20;;;;;;;6.03;4.10;;;;;;;6.05;100.00;96153.16;5114089;28;24425;-77
2021/10/16 04:21:47;;;;;;;4.10;3.70;;;;;;;6.00;100.00;96147.34;5113663;28;24517;-77
2021/10/16 04:24:13;;;;;;;3.95;3.60;;;;;;;6.01;100.00;96151.59;5113678;28;24420;-76
2021/10/16 04:26:40;;;;;;;5.22;3.78;;;;;;;6.02;100.00;96154.09;5113381;28;24506;-77
2021/10/16 04:29:06;;;;;;;4.77;3.50;;;;;;;6.00;100.00;96155.06;5113768;28;24428;-77
2021/10/16 04:31:34;;;;;;;4.97;3.67;;;;;;;5.91;100.00;96150.25;5113445;28;24441;-77
2021/10/16 04:34:02;;;;;;;3.80;3.40;;;;;;;5.97;100.00;96155.16;5113543;28;24421;-77
2021/10/16 04:36:29;;;;;;;4.63;3.90;;;;;;;5.99;100.00;96153.38;5112871;28;24512;-76
2021/10/16 04:38:56;;;;;;;5.33;4.10;;;;;;;5.87;100.00;96153.84;5113183;28;24515;-75
2021/10/16 04:41:23;;;;;;;4.38;3.97;;;;;;;5.74;100.00;96153.44;5113276;28;24428;-77
2021/10/16 04:43:50;;;;;;;6.25;4.35;;;;;;;5.76;100.00;96155.06;5113437;28;24413;-76
2021/10/16 04:46:17;;;;;;;5.07;4.05;;;;;;;5.82;100.00;96156.56;5112938;28;24432;-77
2021/10/16 04:48:45;;;;;;;6.00;4.40;;;;;;;5.90;100.00;96156.28;5113085;28;24467;-77
2021/10/16 04:51:12;;;;;;;4.82;4.20;;;;;;;5.88;100.00;96164.03;5113207;28;24789;-77
2021/10/16 04:53:39;;;;;;;4.90;4.25;;;;;;;5.83;100.00;96159.09;5113574;28;24421;-76
2021/10/16 04:56:06;;;;;;;5.38;4.50;;;;;;;5.95;100.00;96150.09;5112647;28;24471;-77
2021/10/16 04:58:33;;;;;;;5.22;4.07;;;;;;;6.08;100.00;96158.16;5113338;28;24437;-77
2021/10/16 05:00:59;;;;;;;5.10;4.32;;;;;;;6.04;100.00;96154.91;5113311;28;24958;-77
2021/10/16 05:03:26;;;;;;;7.38;4.57;;;;;;;6.15;100.00;96156.19;5114267;28;24455;-78
2021/10/16 05:05:55;;;;;;;6.05;4.88;;;;;;;6.20;100.00;96156.88;5113849;28;25011;-77
2021/10/16 05:08:22;;;;;;;5.10;4.40;;;;;;;6.22;100.00;96155.88;5113682;28;24426;-77
2021/10/16 05:10:49;;;;;;;4.90;4.30;;;;;;;6.15;100.00;96151.88;5113164;27;24463;-77
2021/10/16 05:13:15;;;;;;;5.93;4.38;;;;;;;6.06;100.00;96152.25;5113138;28;24795;-78
2021/10/16 05:15:42;;;;;;;5.55;4.47;;;;;;;6.06;100.00;96155.66;5112271;28;24475;-77
2021/10/16 05:18:08;;;;;;;7.20;4.85;;;;;;;6.18;100.00;96161.22;5112303;28;24425;-76
2021/10/16 05:20:35;;;;;;;9.10;8.00;;;;;;;6.09;100.00;96164.16;5112845;28;24429;-76
2021/10/16 05:23:02;;;;;;;34.00;22.10;;;;;;;6.09;100.00;96159.84;5113001;28;24428;-76
2021/10/16 05:25:29;;;;;;;24.58;17.25;;;;;;;6.11;100.00;96158.03;5112195;28;24424;-76
2021/10/16 05:27:55;;;;;;;15.73;11.43;;;;;;;6.18;100.00;96168.94;5112527;28;24413;-77
2021/10/16 05:30:22;;;;;;;18.88;12.98;;;;;;;6.21;100.00;96171.41;5112338;28;24474;-77
2021/10/16 05:32:48;;;;;;;30.00;18.13;;;;;;;6.03;100.00;96166.06;5112504;28;24457;-76
2021/10/16 05:35:15;;;;;;;16.80;11.52;;;;;;;5.94;100.00;96163.84;5117207;28;24432;-77
2021/10/16 05:37:42;;;;;;;19.17;12.00;;;;;;;6.00;100.00;96170.47;5117205;28;24426;-76
2021/10/16 05:40:11;;;;;;;25.55;17.13;;;;;;;6.03;100.00;96171.19;5115316;28;24438;-77
2021/10/16 05:42:38;;;;;;;22.88;13.68;;;;;;;5.93;100.00;96172.47;5118051;28;24428;-76
2021/10/16 05:45:05;;;;;;;16.25;9.57;;;;;;;5.87;100.00;96171.81;5116216;28;24418;-77
2021/10/16 05:47:32;;;;;;;9.88;6.43;;;;;;;5.81;100.00;96181.44;5112782;28;24421;-77
2021/10/16 05:49:58;;;;;;;7.70;5.78;;;;;;;5.77;100.00;96171.31;5112365;28;24425;-77
2021/10/16 05:52:25;;;;;;;12.18;7.93;;;;;;;5.80;100.00;96176.34;5112260;28;24971;-77
2021/10/16 05:54:51;;;;;;;9.35;7.40;;;;;;;5.93;100.00;96179.31;5112700;28;24461;-76
2021/10/16 05:57:19;;;;;;;11.07;7.30;;;;;;;6.02;100.00;96173.84;5112548;28;24947;-76
2021/10/16 05:59:45;;;;;;;8.85;7.25;;;;;;;6.06;100.00;96176.22;5113237;28;24413;-77
2021/10/16 06:02:12;;;;;;;7.95;7.03;;;;;;;6.10;100.00;96176.13;5115184;28;24470;-77
2021/10/16 06:04:38;;;;;;;8.85;6.85;;;;;;;6.15;100.00;96184.47;5114190;28;24417;-78
2021/10/16 06:07:05;;;;;;;8.95;6.57;;;;;;;6.10;100.00;96187.25;5113763;28;24775;-78
2021/10/16 06:09:31;;;;;;;13.67;6.17;;;;;;;6.04;100.00;96190.03;5113913;28;24570;-75
2021/10/16 06:11:58;;;;;;;10.02;6.40;;;;;;;6.01;100.00;96187.59;5113565;28;24510;-78
2021/10/16 06:14:26;;;;;;;8.38;5.95;;;;;;;5.99;100.00;96186.81;5113200;28;24422;-76
2021/10/16 06:16:52;;;;;;;11.90;6.10;;;;;;;6.06;100.00;96188.25;5113279;28;24432;-77
2021/10/16 06:19:19;;;;;;;6.35;5.40;;;;;;;6.16;100.00;96187.00;5112771;28;24821;-78
2021/10/16 06:21:45;;;;;;;8.07;6.45;;;;;;;6.26;100.00;96192.63;5112304;28;24989;-77
2021/10/16 06:24:12;;;;;;;9.35;6.60;;;;;;;6.30;100.00;96195.03;5112512;28;24422;-78
2021/10/16 06:26:39;;;;;;;7.93;5.97;;;;;;;6.34;100.00;96197.47;5112010;28;24426;-76
2021/10/16 06:29:05;;;;;;;6.80;6.00;;;;;;;6.35;100.00;96197.41;5112193;28;24521;-77
2021/10/16 06:31:33;;;;;;;7.10;6.03;;;;;;;6.33;100.00;96199.19;5112636;28;24448;-77
2021/10/16 06:34:00;;;;;;;8.07;6.32;;;;;;;6.39;100.00;96193.81;5111444;28;20753;-77
2021/10/16 06:36:26;;;;;;;8.00;6.10;;;;;;;6.44;100.00;96196.22;5111430;28;24750;-77
2021/10/16 06:38:52;;;;;;;9.80;6.20;;;;;;;6.45;100.00;96198.75;5114338;28;24461;-77
2021/10/16 06:41:19;;;;;;;11.57;6.20;;;;;;;6.51;100.00;96205.34;5115390;27;24467;-76
2021/10/16 06:43:46;;;;;;;9.75;7.47;;;;;;;6.61;100.00;96203.28;5114986;28;24425;-78
2021/10/16 06:46:12;;;;;;;12.48;9.65;;;;;;;6.59;100.00;96205.88;5115014;28;24417;-77
2021/10/16 06:48:40;;;;;;;10.15;8.52;;;;;;;6.72;100.00;96196.78;5114041;28;24425;-75
2021/10/16 06:51:06;;;;;;;8.80;7.63;;;;;;;6.82;100.00;96206.69;5114054;28;24441;-77
2021/10/16 06:53:33;;;;;;;9.85;8.00;;;;;;;6.78;100.00;96205.97;5114328;28;24838;-75
2021/10/16 06:56:00;;;;;;;10.77;7.97;;;;;;;6.73;100.00;96216.47;5116001;28;24420;-76
2021/10/16 06:58:26;;;;;;;10.20;8.88;;;;;;;6.73;100.00;96215.63;5115248;28;24425;-77
2021/10/16 07:00:52;;;;;;;11.75;8.55;;;;;;;6.84;100.00;96225.50;5115526;28;24426;-77
2021/10/16 07:03:19;;;;;;;13.73;10.23;;;;;;;7.05;100.00;96221.22;5115527;28;24486;-76
2021/10/16 07:05:47;;;;;;;9.85;7.68;;;;;;;7.20;100.00;96212.84;5115534;28;24463;-77
2021/10/16 07:08:13;;;;;;;12.77;7.00;;;;;;;7.11;100.00;96220.94;5115200;28;24429;-75
2021/10/16 07:10:41;;;;;;;10.88;8.68;;;;;;;7.01;100.00;96221.34;5115996;28;25014;-76
2021/10/16 07:13:08;;;;;;;10.18;8.40;;;;;;;6.94;100.00;96224.22;5115127;28;24428;-77
2021/10/16 07:15:35;;;;;;;9.90;8.60;;;;;;;6.93;100.00;96225.94;5114239;28;24512;-77
2021/10/16 07:18:01;;;;;;;15.83;11.73;;;;;;;7.15;100.00;96228.47;5114100;28;24437;-76
2021/10/16 07:20:28;;;;;;;11.40;7.90;;;;;;;7.51;100.00;96220.09;5114807;28;24514;-76
2021/10/16 07:22:56;;;;;;;9.77;6.90;;;;;;;7.52;100.00;96225.16;5114869;28;24421;-76
2021/10/16 07:25:23;;;;;;;10.13;7.97;;;;;;;7.54;100.00;96221.69;5114903;28;24821;-77
2021/10/16 07:27:51;;;;;;;10.52;8.52;;;;;;;7.43;100.00;96230.72;5114269;28;24428;-76
2021/10/16 07:30:18;;;;;;;12.10;8.80;;;;;;;7.26;100.00;96238.31;5114864;28;24417;-77
2021/10/16 07:32:46;;;;;;;14.48;10.77;;;;;;;7.21;100.00;96240.28;5114997;28;24445;-77
2021/10/16 07:35:12;;;;;;;15.35;11.55;;;;;;;7.13;100.00;96244.91;5115282;28;24456;-76
2021/10/16 07:37:38;;;;;;;14.70;11.63;;;;;;;7.11;100.00;96236.41;5115879;28;24475;-77
2021/10/16 07:40:08;;;;;;;25.92;16.15;;;;;;;7.13;100.00;96242.34;5115520;28;24429;-77
2021/10/16 07:42:34;;;;;;;26.02;20.27;;;;;;;7.28;100.00;96245.09;5115675;28;24414;-77
2021/10/16 07:45:01;;;;;;;32.33;25.55;;;;;;;7.30;100.00;96239.88;5115386;28;24437;-76
2021/10/16 07:47:27;;;;;;;35.63;28.20;;;;;;;7.31;100.00;96254.44;5115107;28;24437;-77
2021/10/16 07:49:54;;;;;;;37.13;27.93;;;;;;;7.25;100.00;96254.69;5115393;28;24434;-77
2021/10/16 07:52:21;;;;;;;38.70;28.05;;;;;;;7.31;100.00;96253.63;5115125;28;20772;-77
2021/10/16 07:54:47;;;;;;;34.10;27.55;;;;;;;7.47;100.00;96258.03;5114713;28;24977;-69
2021/10/16 07:57:15;;;;;;;37.22;26.67;;;;;;;7.50;100.00;96246.78;5114257;28;24414;-77
2021/10/16 07:59:42;;;;;;;34.28;26.95;;;;;;;7.55;100.00;96252.56;5110693;28;20834;-78
2021/10/16 08:02:08;;;;;;;29.98;22.17;;;;;;;7.55;100.00;96249.97;5112722;28;24457;-76
2021/10/16 08:04:35;;;;;;;28.48;21.00;;;;;;;7.70;100.00;96256.19;5114040;27;20765;-75
2021/10/16 08:07:01;;;;;;;33.05;25.13;;;;;;;7.65;100.00;96253.00;5112679;28;24491;-77
2021/10/16 08:09:28;;;;;;;30.52;23.75;;;;;;;7.63;100.00;96252.22;5113071;28;24474;-77
2021/10/16 08:11:54;;;;;;;27.13;17.20;;;;;;;7.62;100.00;96253.13;5114587;28;24448;-78
2021/10/16 08:14:22;;;;;;;16.42;12.68;;;;;;;7.43;100.00;96263.38;5113837;28;24822;-77
2021/10/16 08:16:48;;;;;;;16.73;12.88;;;;;;;7.50;100.00;96263.06;5112722;28;24574;-76
2021/10/16 08:19:15;;;;;;;19.98;13.95;;;;;;;7.56;100.00;96263.69;5112606;28;24978;-76
2021/10/16 08:21:42;;;;;;;21.17;13.35;;;;;;;7.56;100.00;96253.38;5113032;27;20742;-75
2021/10/16 08:24:08;;;;;;;14.20;11.32;;;;;;;7.52;100.00;96257.84;5112358;28;24417;-75
2021/10/16 08:26:35;;;;;;;17.05;12.02;;;;;;;7.42;100.00;96267.72;5112424;28;24433;-77
2021/10/16 08:29:01;;;;;;;26.03;15.90;;;;;;;7.35;100.00;96268.88;5112264;28;24437;-76
2021/10/16 08:31:29;;;;;;;25.60;17.60;;;;;;;7.37;100.00;96273.94;5112871;28;24449;-75
2021/10/16 08:33:56;;;;;;;22.60;15.95;;;;;;;7.40;100.00;96271.25;5112809;28;20845;-75
2021/10/16 08:36:22;;;;;;;29.30;16.40;;;;;;;7.49;100.00;96268.25;5113817;28;24432;-76
2021/10/16 08:38:51;;;;;;;30.60;18.05;;;;;;;7.49;100.00;96278.56;5117163;27;24417;-76
2021/10/16 08:41:18;;;;;;;25.70;17.55;;;;;;;7.55;100.00;96283.47;5118810;27;20813;-75
2021/10/16 08:43:45;;;;;;;24.05;17.67;;;;;;;7.56;100.00;96280.00;5114695;28;24420;-77
2021/10/16 08:46:13;;;;;;;24.35;18.15;;;;;;;7.63;100.00;96271.09;5112256;28;24418;-76
2021/10/16 08:48:41;;;;;;;23.98;17.60;;;;;;;7.71;100.00;96278.50;5112695;28;24426;-77
2021/10/16 08:51:09;;;;;;;29.50;19.17;;;;;;;7.78;100.00;96281.66;5112164;28;24433;-77
2021/10/16 08:53:35;;;;;;;24.30;18.60;;;;;;;7.86;100.00;96274.41;5112647;28;20810;-78
2021/10/16 08:56:04;;;;;;;27.20;20.67;;;;;;;7.83;100.00;96280.56;5113193;28;20811;-77
2021/10/16 08:58:31;;;;;;;22.88;19.70;;;;;;;7.83;100.00;96277.97;5113116;28;24464;-75
2021/10/16 09:00:58;;;;;;;24.67;19.85;;;;;;;7.81;100.00;96273.78;5112396;28;20835;-77
2021/10/16 09:03:27;;;;;;;35.50;25.88;;;;;;;7.91;100.00;96282.81;5113575;28;20750;-75
2021/10/16 09:06:14;;;;;;;36.28;26.40;;;;;;;8.03;100.00;96277.09;5113548;28;20769;-78
2021/10/16 09:08:47;;;;;;;26.10;22.08;;;;;;;8.18;100.00;96278.16;5112325;28;20740;-76
2021/10/16 09:11:23;;;;;;;18.20;16.23;;;;;;;8.16;100.00;96275.66;5129472;27;20697;-77
2021/10/16 09:13:52;;;;;;;16.57;12.83;;;;;;;8.19;100.00;96277.22;5134678;27;20667;-76
2021/10/16 09:16:21;;;;;;;14.23;10.53;;;;;;;8.25;100.00;96271.81;5133312;27;24432;-75
2021/10/16 09:18:56;;;;;;;13.68;11.05;;;;;;;8.32;100.00;96275.78;5133634;27;21082;-77
2021/10/16 09:21:27;;;;;;;13.47;12.07;;;;;;;8.28;100.00;96278.56;5133079;27;22440;-77
2021/10/16 09:24:09;;;;;;;13.85;11.38;;;;;;;8.21;100.00;96275.44;5133197;27;20689;-77
2021/10/16 09:26:38;;;;;;;12.38;10.90;;;;;;;8.31;100.00;96278.44;5133508;27;20744;-77
2021/10/16 09:29:06;;;;;;;15.13;10.80;;;;;;;8.42;100.00;96277.06;5133198;27;20751;-76
2021/10/16 09:31:35;;;;;;;14.73;12.18;;;;;;;8.50;100.00;96281.03;5133116;27;20747;-76
2021/10/16 09:34:03;;;;;;;13.55;11.35;;;;;;;8.67;100.00;96278.50;5132778;27;20751;-77
2021/10/16 09:36:31;;;;;;;14.00;11.63;;;;;;;8.93;100.00;96275.50;5132741;27;20831;-76
2021/10/16 09:38:59;;;;;;;13.15;11.55;;;;;;;8.68;100.00;96282.78;5132666;27;20746;-76
2021/10/16 09:41:27;;;;;;;13.02;11.50;;;;;;;8.70;100.00;96284.34;5133348;27;21318;-77
2021/10/16 09:43:54;;;;;;;16.98;12.52;;;;;;;8.70;100.00;96281.78;5133144;27;20784;-77
2021/10/16 09:46:21;;;;;;;14.23;12.73;;;;;;;8.66;100.00;96279.41;5132805;27;24432;-77
2021/10/16 09:48:48;;;;;;;17.70;13.30;;;;;;;8.69;100.00;96281.84;5132950;27;20796;-76
2021/10/16 09:51:15;;;;;;;16.30;13.73;;;;;;;8.77;100.00;96278.91;5132652;27;20772;-77
2021/10/16 09:53:45;;;;;;;16.65;14.45;;;;;;;8.92;100.00;96275.59;5134169;27;20831;-78
2021/10/16 09:56:12;;;;;;;21.95;16.75;;;;;;;9.17;100.00;96283.00;5135592;27;20709;-78
2021/10/16 09:58:40;;;;;;;20.90;18.15;;;;;;;9.12;100.00;96283.22;5135554;27;24452;-77
2021/10/16 10:01:08;;;;;;;28.25;21.25;;;;;;;9.26;100.00;96279.94;5135296;27;24444;-78
2021/10/16 10:03:38;;;;;;;25.37;20.37;;;;;;;9.14;100.00;96278.81;5135303;27;24451;-78
2021/10/16 10:06:04;;;;;;;22.67;19.38;;;;;;;9.13;100.00;96281.47;5135027;27;21327;-78
2021/10/16 10:08:31;;;;;;;23.50;20.73;;;;;;;9.10;100.00;96277.28;5135873;27;24938;-78
2021/10/16 10:11:02;;;;;;;28.58;21.45;;;;;;;9.56;100.00;96276.75;5135575;27;20740;-78
2021/10/16 10:13:29;;;;;;;25.63;21.60;;;;;;;9.31;100.00;96272.81;5138199;27;24448;-76
2021/10/16 10:15:56;;;;;;;21.90;17.92;;;;;;;9.12;100.00;96267.72;5138438;27;21301;-78
2021/10/16 10:21:08;;;;;;;38.70;26.67;;;;;;;9.42;100.00;96267.94;5139588;27;24787;-77
2021/10/16 10:23:34;;;;;;;33.85;26.00;;;;;;;9.66;100.00;96270.19;5139680;27;24429;-78
2021/10/16 10:26:25;;;;;;;34.15;26.52;;;;;;;9.60;100.00;96263.59;5139189;27;20747;-78
2021/10/16 10:28:58;;;;;;;40.27;28.07;;;;;;;9.98;100.00;96270.28;5140027;27;25187;-78
2021/10/16 10:31:57;;;;;;;39.00;29.65;;;;;;;9.96;100.00;96269.53;5139268;27;20686;-77
2021/10/16 10:34:28;;;;;;;36.03;29.87;;;;;;;9.82;100.00;96275.41;5139314;27;25131;-78
2021/10/16 10:36:58;;;;;;;37.15;27.10;;;;;;;9.94;100.00;96269.63;5140118;27;20667;-77
2021/10/16 10:39:42;;;;;;;33.72;27.70;;;;;;;9.62;100.00;96273.84;5139440;27;20719;-77
2021/10/16 10:42:45;;;;;;;38.50;26.67;;;;;;;9.99;100.00;96264.19;5139331;27;25112;-78
2021/10/16 10:45:38;;;;;;;38.20;27.30;;;;;;;9.99;100.00;96264.19;5138416;27;20620;-77
2021/10/16 10:48:10;;;;;;;36.47;26.95;;;;;;;9.85;100.00;96265.72;5137572;27;21001;-78
2021/10/16 10:50:58;;;;;;;32.20;25.60;;;;;;;9.53;100.00;96264.81;5137751;27;20747;-78
2021/10/16 10:53:33;;;;;;;39.15;28.50;;;;;;;9.67;100.00;96266.69;5137703;27;24448;-78
2021/10/16 10:56:02;;;;;;;34.58;25.42;;;;;;;9.48;100.00;96268.53;5136939;27;25131;-77
2021/10/16 10:58:59;;;;;;;33.03;24.40;;;;;;;9.91;100.00;96260.25;5137473;27;24451;-78
2021/10/16 11:01:49;;;;;;;34.67;23.65;;;;;;;10.07;100.00;96264.63;5138345;27;24505;-78
2021/10/16 11:04:34;;;;;;;30.73;22.13;;;;;;;9.99;100.00;96253.84;5136650;27;20621;-77
2021/10/16 11:07:03;;;;;;;29.58;21.77;;;;;;;9.79;100.00;96260.03;5106909;28;20669;-77
2021/10/16 11:09:30;;;;;;;32.23;24.70;;;;;;;9.94;100.00;96252.34;5108461;28;20801;-77
2021/10/16 11:11:57;;;;;;;37.20;24.03;;;;;;;10.15;100.00;96242.56;5106945;28;20765;-77
2021/10/16 11:14:30;;;;;;;29.38;22.85;;;;;;;10.19;100.00;96251.84;5106591;28;21362;-78
2021/10/16 11:16:59;;;;;;;31.42;24.30;;;;;;;10.11;100.00;96248.00;5106869;28;20632;-77
2021/10/16 11:19:26;;;;;;;28.50;21.90;;;;;;;10.06;100.00;96243.09;5106445;28;20783;-78
2021/10/16 11:21:52;;;;;;;23.27;19.70;;;;;;;10.00;100.00;96243.41;5106857;28;25035;-77
2021/10/16 11:24:20;;;;;;;27.00;21.70;;;;;;;10.39;100.00;96230.09;5113196;28;20766;-78
2021/10/16 11:26:53;;;;;;;32.60;22.23;;;;;;;10.49;100.00;96233.00;5107299;28;21401;-77
2021/10/16 11:29:30;;;;;;;30.08;22.92;;;;;;;10.51;100.00;96228.59;5107813;28;20645;-77
2021/10/16 11:32:17;;;;;;;25.33;20.23;;;;;;;10.16;100.00;96225.31;5108441;28;20635;-77
2021/10/16 11:34:59;;;;;;;25.13;20.80;;;;;;;10.18;100.00;96218.28;5104326;28;20778;-78